Jonesboro Municipal Airport

Airport
ICAO code: 
KJBR
Summary
ICAO Region: 
NAM
Territory: 
Location: 
Jonesboro, Arkansas,
Coordinates: 
Aerial View: 
35° 49' 53.962" N, 90° 38' 49.156" W
Metar
Observation
KJBR 021553Z AUTO 24006KT 9SM 16/09 A3010 RMK AO2 SLP191 T01560094 $
Station
Jonesboro, Jonesboro Municipal Airport
Date/Time
2021-12-02 15:53:00
Wind direction
240°
Wind speed
06 kts
Lowest cloud amount
n/a
Temperature
15.6°C
Dew point
9.4°C
Humidity
66%
Weather condition
n/a

Description

Municipal airport serving Jonesboro, Arkansas, USA, located 3 nm east of the city's business district.

Climatology

Humid “subtropical” climate (Köppen climate classification Cfa) - characterized by hot, humid summers and cool winters. Significant amounts of precipitation occur in all seasons in most areas. Winter rainfall (and sometimes snowfall) is associated with large storms that the westerlies steer from west to east. Most summer rainfall occurs during thunderstorms and occasional tropical storms (hurricanes).

Runways

Designator Length Width Surface Rops
13/31 1249 46 ASP No/No
5/23 1890 46 ASP No/No
Airport map: 
Aerial View: 

SKYbrary Partners:

Safety knowledge contributed by: